createdAt,value
2017-07-27T00:00:43.468Z,31.1
2017-07-27T00:01:43.237Z,31.1
2017-07-27T00:02:48.609Z,31.1
2017-07-27T00:03:46.489Z,31
2017-07-27T00:04:43.723Z,31.1
2017-07-27T00:05:43.470Z,31.1
2017-07-27T00:06:43.786Z,31.1
2017-07-27T00:07:43.844Z,31.1
2017-07-27T00:08:46.782Z,31.1
2017-07-27T00:09:43.946Z,31.1
2017-07-27T00:10:46.886Z,31
2017-07-27T00:11:43.810Z,31.1
2017-07-27T00:12:43.897Z,31.1
2017-07-27T00:13:48.946Z,31.1
2017-07-27T00:14:46.917Z,31.1
2017-07-27T00:15:49.645Z,31.1
2017-07-27T00:16:49.420Z,31.1
2017-07-27T00:17:44.517Z,31
2017-07-27T00:18:47.144Z,31
2017-07-27T00:19:44.640Z,31
2017-07-27T00:20:44.449Z,31
2017-07-27T00:21:49.706Z,31
2017-07-27T00:22:44.508Z,31
2017-07-27T00:23:49.886Z,31
2017-07-27T00:24:44.602Z,31
2017-07-27T00:25:49.953Z,31
2017-07-27T00:26:45.016Z,31
2017-07-27T00:27:45.347Z,31
2017-07-27T00:28:45.133Z,31
2017-07-27T00:29:44.904Z,31
2017-07-27T00:30:44.918Z,31
2017-07-27T00:31:47.826Z,31
2017-07-27T00:32:50.012Z,31
2017-07-27T00:33:50.282Z,31
2017-07-27T00:34:45.367Z,31
2017-07-27T00:35:50.419Z,31
2017-07-27T00:36:50.206Z,31
2017-07-27T00:37:50.585Z,31
2017-07-27T00:38:45.680Z,31
2017-07-27T00:39:48.786Z,31
2017-07-27T00:40:48.577Z,31
2017-07-27T00:41:45.772Z,31
2017-07-27T00:42:45.833Z,31
2017-07-27T00:43:45.616Z,31
2017-07-27T00:44:50.721Z,31
2017-07-27T00:45:48.831Z,31
2017-07-27T00:46:45.767Z,31
2017-07-27T00:47:46.165Z,31
2017-07-27T00:48:50.845Z,31
2017-07-27T00:49:50.926Z,31
2017-07-27T00:50:48.859Z,31
2017-07-27T00:51:46.698Z,31
2017-07-27T00:52:49.268Z,31
2017-07-27T00:53:51.130Z,31
2017-07-27T00:54:46.490Z,31
2017-07-27T00:55:49.083Z,31
2017-07-27T00:56:49.479Z,31
2017-07-27T00:57:46.602Z,31
2017-07-27T00:58:51.684Z,31
2017-07-27T00:59:49.313Z,31
2017-07-27T01:00:46.793Z,31
2017-07-27T01:01:46.609Z,31
2017-07-27T01:02:46.902Z,31
2017-07-27T01:03:51.980Z,31
2017-07-27T01:04:52.053Z,31
2017-07-27T01:05:52.134Z,31
2017-07-27T01:06:51.797Z,31
2017-07-27T01:07:47.217Z,31
2017-07-27T01:08:50.170Z,31
2017-07-27T01:09:50.097Z,31
2017-07-27T01:10:47.083Z,31
2017-07-27T01:11:50.280Z,31
2017-07-27T01:12:47.129Z,31
2017-07-27T01:13:52.434Z,31
2017-07-27T01:14:47.511Z,31
2017-07-27T01:15:47.570Z,31
2017-07-27T01:16:50.214Z,31
2017-07-27T01:17:47.363Z,31
2017-07-27T01:18:47.741Z,31
2017-07-27T01:19:47.803Z,31
2017-07-27T01:20:50.521Z,31
2017-07-27T01:21:50.962Z,31
2017-07-27T01:22:50.631Z,31
2017-07-27T01:23:47.893Z,31
2017-07-27T01:24:48.241Z,31
2017-07-27T01:25:53.297Z,31
2017-07-27T01:26:48.102Z,31
2017-07-27T01:27:48.727Z,31
2017-07-27T01:28:53.447Z,31
2017-07-27T01:29:53.104Z,31
2017-07-27T01:30:51.521Z,31
2017-07-27T01:31:48.641Z,31
2017-07-27T01:32:51.220Z,31
2017-07-27T01:33:48.994Z,31
2017-07-27T01:34:51.256Z,31
2017-07-27T01:35:53.380Z,31
2017-07-27T01:36:48.716Z,31
2017-07-27T01:37:48.767Z,31
2017-07-27T01:38:51.418Z,31
2017-07-27T01:39:49.174Z,31
2017-07-27T01:40:51.604Z,31
2017-07-27T01:41:51.613Z,31
2017-07-27T01:42:48.805Z,31
2017-07-27T01:43:52.105Z,30.9
2017-07-27T01:44:48.993Z,31
2017-07-27T01:45:52.448Z,31
2017-07-27T01:46:54.209Z,31
2017-07-27T01:47:51.865Z,31
2017-07-27T01:48:49.379Z,31
2017-07-27T01:49:49.172Z,31
2017-07-27T01:50:49.566Z,31
2017-07-27T01:51:50.065Z,31
2017-07-27T01:52:54.368Z,31
2017-07-27T01:53:52.621Z,31
2017-07-27T01:54:50.035Z,31
2017-07-27T01:55:53.111Z,31
2017-07-27T01:56:52.950Z,31
2017-07-27T01:57:53.229Z,31
2017-07-27T01:58:53.956Z,31
2017-07-27T01:59:53.034Z,31
2017-07-27T02:00:50.325Z,30.9
2017-07-27T02:01:50.156Z,31
2017-07-27T02:02:52.907Z,31
2017-07-27T02:03:50.305Z,31
2017-07-27T02:04:50.494Z,31
2017-07-27T02:05:50.331Z,30.9
2017-07-27T02:06:50.689Z,31
2017-07-27T02:07:56.218Z,31
2017-07-27T02:08:55.619Z,31
2017-07-27T02:09:57.658Z,31
2017-07-27T02:10:50.418Z,31
2017-07-27T02:11:50.427Z,31
2017-07-27T02:12:53.438Z,31
2017-07-27T02:13:53.363Z,31
2017-07-27T02:14:55.951Z,31
2017-07-27T02:15:55.925Z,31
2017-07-27T02:16:55.611Z,31
2017-07-27T02:17:51.034Z,31
2017-07-27T02:18:55.769Z,31
2017-07-27T02:19:55.892Z,31
2017-07-27T02:20:55.901Z,30.9
2017-07-27T02:21:54.081Z,30.9
2017-07-27T02:22:54.126Z,31
2017-07-27T02:23:53.884Z,31
2017-07-27T02:24:52.028Z,31
2017-07-27T02:25:54.395Z,31
2017-07-27T02:26:54.052Z,31
2017-07-27T02:27:56.645Z,31
2017-07-27T02:28:56.938Z,30.9
2017-07-27T02:29:56.382Z,31
2017-07-27T02:30:51.796Z,31
2017-07-27T02:31:56.522Z,31
2017-07-27T02:32:56.576Z,31
2017-07-27T02:33:56.450Z,31
2017-07-27T02:34:54.700Z,31
2017-07-27T02:35:54.949Z,30.9
2017-07-27T02:36:57.134Z,31
2017-07-27T02:37:52.202Z,31
2017-07-27T02:38:54.938Z,31
2017-07-27T02:39:57.410Z,31
2017-07-27T02:40:57.181Z,31
2017-07-27T02:41:55.105Z,31
2017-07-27T02:42:57.265Z,30.9
2017-07-27T02:43:52.326Z,30.9
2017-07-27T02:44:52.442Z,30.9
2017-07-27T02:45:52.765Z,30.9
2017-07-27T02:46:55.304Z,31
2017-07-27T02:47:55.335Z,31
2017-07-27T02:48:57.295Z,30.9
2017-07-27T02:50:00.540Z,31
2017-07-27T02:50:56.379Z,30.9
2017-07-27T02:51:59.659Z,30.9
2017-07-27T02:52:55.633Z,30.9
2017-07-27T02:53:59.219Z,30.9
2017-07-27T02:54:56.267Z,30.9
2017-07-27T02:55:56.672Z,30.9
2017-07-27T02:56:56.945Z,30.9
2017-07-27T02:58:01.286Z,30.9
2017-07-27T02:59:01.066Z,30.9
2017-07-27T03:00:02.913Z,30.9
2017-07-27T03:00:59.623Z,30.9
2017-07-27T03:01:56.305Z,30.9
2017-07-27T03:03:02.230Z,30.9
2017-07-27T03:03:58.544Z,30.9
2017-07-27T03:04:55.921Z,30.9
2017-07-27T03:05:57.465Z,30.9
2017-07-27T03:06:54.659Z,30.9
2017-07-27T03:07:58.964Z,30.9
2017-07-27T03:08:57.409Z,30.9
2017-07-27T03:10:02.206Z,30.9
2017-07-27T03:10:59.670Z,30.9
2017-07-27T03:11:54.877Z,30.9
2017-07-27T03:13:01.053Z,30.9
2017-07-27T03:14:00.720Z,30.9
2017-07-27T03:15:01.614Z,30.9
2017-07-27T03:15:54.751Z,30.9
2017-07-27T03:16:57.485Z,30.9
2017-07-27T03:18:01.219Z,30.9
2017-07-27T03:18:59.741Z,30.9
2017-07-27T03:19:57.387Z,30.9
2017-07-27T03:20:56.956Z,30.9
2017-07-27T03:21:54.436Z,30.9
2017-07-27T03:22:54.209Z,30.9
2017-07-27T03:23:57.473Z,30.9
2017-07-27T03:24:57.388Z,30.9
2017-07-27T03:25:57.453Z,30.9
2017-07-27T03:26:57.821Z,30.9
2017-07-27T03:27:57.897Z,30.9
2017-07-27T03:28:59.763Z,30.9
2017-07-27T03:29:57.953Z,30.9
2017-07-27T03:30:55.021Z,30.9
2017-07-27T03:31:55.063Z,30.9
2017-07-27T03:32:54.910Z,30.9
2017-07-27T03:33:58.025Z,30.9
2017-07-27T03:35:00.209Z,30.9
2017-07-27T03:36:00.287Z,30.9
2017-07-27T03:37:00.043Z,30.9
2017-07-27T03:37:55.378Z,30.9
2017-07-27T03:38:58.332Z,30.9
2017-07-27T03:39:55.447Z,30.9
2017-07-27T03:40:58.358Z,30.9
2017-07-27T03:41:58.100Z,30.9
2017-07-27T03:42:55.563Z,30.9
2017-07-27T03:43:55.584Z,30.9
2017-07-27T03:44:55.338Z,30.9
2017-07-27T03:46:01.011Z,30.9
2017-07-27T03:46:55.498Z,30.9
2017-07-27T03:48:00.549Z,30.9
2017-07-27T03:48:55.697Z,30.9
2017-07-27T03:49:58.618Z,30.9
2017-07-27T03:50:56.113Z,30.9
2017-07-27T03:51:59.037Z,30.9
2017-07-27T03:53:00.912Z,30.9
2017-07-27T03:53:58.861Z,30.9
2017-07-27T03:54:56.083Z,30.9
2017-07-27T03:55:56.162Z,30.9
2017-07-27T03:57:01.186Z,30.9
2017-07-27T03:57:59.723Z,30.9
2017-07-27T03:59:01.226Z,30.9
2017-07-27T04:00:01.585Z,30.9
2017-07-27T04:00:56.632Z,30.9
2017-07-27T04:01:59.573Z,30.9
2017-07-27T04:02:56.802Z,30.9
2017-07-27T04:03:59.696Z,30.9
2017-07-27T04:04:59.789Z,30.9
2017-07-27T04:05:56.574Z,30.9
2017-07-27T04:07:01.624Z,30.9
2017-07-27T04:07:56.980Z,30.9
2017-07-27T04:09:02.057Z,30.9
2017-07-27T04:10:02.035Z,30.9
2017-07-27T04:11:00.030Z,30.9
2017-07-27T04:12:02.111Z,30.9
2017-07-27T04:12:57.198Z,30.9
2017-07-27T04:14:01.887Z,30.9
2017-07-27T04:14:57.252Z,30.9
2017-07-27T04:15:57.611Z,30.9
2017-07-27T04:16:59.904Z,30.9
2017-07-27T04:17:57.404Z,30.9
2017-07-27T04:18:57.452Z,30.9
2017-07-27T04:19:57.257Z,30.9
2017-07-27T04:20:57.611Z,30.9
2017-07-27T04:21:57.679Z,30.9
2017-07-27T04:22:57.744Z,30.9
2017-07-27T04:24:02.432Z,30.9
2017-07-27T04:24:57.508Z,31
2017-07-27T04:26:02.908Z,31
2017-07-27T04:26:58.016Z,31
2017-07-27T04:28:03.063Z,31
2017-07-27T04:29:01.031Z,31
2017-07-27T04:30:01.030Z,31
2017-07-27T04:30:57.862Z,31
2017-07-27T04:32:02.892Z,31
2017-07-27T04:33:00.842Z,31
2017-07-27T04:34:01.578Z,31
2017-07-27T04:34:58.419Z,31
2017-07-27T04:35:58.162Z,30.9
2017-07-27T04:36:58.165Z,30.8
2017-07-27T04:37:58.297Z,30.5
2017-07-27T04:39:03.282Z,30.2
2017-07-27T04:40:01.829Z,30
2017-07-27T04:40:58.736Z,29.6
2017-07-27T04:41:58.574Z,29.2
2017-07-27T04:42:58.604Z,29
2017-07-27T04:44:03.615Z,28.9
2017-07-27T04:45:03.648Z,28.8
2017-07-27T04:46:04.068Z,28.8
2017-07-27T04:46:58.844Z,28.6
2017-07-27T04:48:03.880Z,28.4
2017-07-27T04:49:04.288Z,28.3
2017-07-27T04:49:58.975Z,28.1
2017-07-27T04:50:59.337Z,28.1
2017-07-27T04:52:04.373Z,28.1
2017-07-27T04:53:04.167Z,28.1
2017-07-27T04:54:04.554Z,28
2017-07-27T04:55:02.173Z,28
2017-07-27T04:56:04.326Z,28
2017-07-27T04:57:02.611Z,27.9
2017-07-27T04:58:05.004Z,27.8
2017-07-27T04:58:59.504Z,27.8
2017-07-27T05:00:02.387Z,27.7
2017-07-27T05:00:59.670Z,27.7
2017-07-27T05:02:04.940Z,27.6
2017-07-27T05:02:59.721Z,27.6
2017-07-27T05:04:02.946Z,27.6
2017-07-27T05:05:02.751Z,27.5
2017-07-27T05:05:59.967Z,27.5
2017-07-27T05:07:02.830Z,27.5
2017-07-27T05:08:02.879Z,27.4
2017-07-27T05:09:00.104Z,27.4
2017-07-27T05:10:05.671Z,27.4
2017-07-27T05:11:00.176Z,27.4
2017-07-27T05:12:00.514Z,27.3
2017-07-27T05:13:00.282Z,27.1
2017-07-27T05:14:03.555Z,27.2
2017-07-27T05:15:03.323Z,27.2
2017-07-27T05:16:05.837Z,27.2
2017-07-27T05:17:05.819Z,27.1
2017-07-27T05:18:05.921Z,27.2
2017-07-27T05:19:06.024Z,27.1
2017-07-27T05:20:00.982Z,27.1
2017-07-27T05:21:04.169Z,27.1
2017-07-27T05:22:01.446Z,27.1
2017-07-27T05:23:04.047Z,27.1
2017-07-27T05:24:01.033Z,27.1
2017-07-27T05:25:05.996Z,27
2017-07-27T05:26:01.426Z,26.9
2017-07-27T05:27:06.381Z,26.9
2017-07-27T05:28:04.659Z,26.9
2017-07-27T05:29:04.129Z,27
2017-07-27T05:30:06.349Z,26.9
2017-07-27T05:31:06.695Z,26.9
2017-07-27T05:32:01.457Z,26.9
2017-07-27T05:33:06.399Z,26.8
2017-07-27T05:34:06.767Z,26.8
2017-07-27T05:35:01.595Z,27
2017-07-27T05:36:06.601Z,27
2017-07-27T05:37:06.925Z,27
2017-07-27T05:38:01.750Z,27.2
2017-07-27T05:39:07.047Z,27.3
2017-07-27T05:40:07.782Z,27.3
2017-07-27T05:41:02.161Z,27.4
2017-07-27T05:42:02.191Z,27.4
2017-07-27T05:43:05.132Z,27.4
2017-07-27T05:44:02.229Z,27.5
2017-07-27T05:45:02.238Z,27.6
2017-07-27T05:46:06.190Z,27.5
2017-07-27T05:47:02.333Z,27.5
2017-07-27T05:48:02.168Z,27.6
2017-07-27T05:49:02.480Z,27.7
2017-07-27T05:50:07.297Z,27.8
2017-07-27T05:51:03.031Z,27.8
2017-07-27T05:52:02.808Z,27.6
2017-07-27T05:53:03.568Z,27.6
2017-07-27T05:54:02.500Z,27.6
2017-07-27T05:55:02.817Z,27.7
2017-07-27T05:56:02.811Z,27.8
2017-07-27T05:57:07.515Z,27.9
2017-07-27T05:58:06.093Z,28
2017-07-27T05:59:05.830Z,28.1
2017-07-27T06:00:08.068Z,28.2
2017-07-27T06:01:07.714Z,28.2
2017-07-27T06:02:07.701Z,28.3
2017-07-27T06:03:05.639Z,28.3
2017-07-27T06:04:06.366Z,28.4
2017-07-27T06:05:06.712Z,28.5
2017-07-27T06:06:02.934Z,28.6
2017-07-27T06:07:08.197Z,28.6
2017-07-27T06:08:08.234Z,28.7
2017-07-27T06:09:02.984Z,28.7
2017-07-27T06:10:08.632Z,28.7
2017-07-27T06:11:03.117Z,28.7
2017-07-27T06:12:08.125Z,28.7
2017-07-27T06:13:03.240Z,28.6
2017-07-27T06:14:03.737Z,28.6
2017-07-27T06:15:03.770Z,28.6
2017-07-27T06:16:04.025Z,28.6
2017-07-27T06:17:06.642Z,28.6
2017-07-27T06:18:08.544Z,28.6
2017-07-27T06:19:03.693Z,28.6
2017-07-27T06:20:03.649Z,28.6
2017-07-27T06:21:07.218Z,28.6
2017-07-27T06:22:06.867Z,28.6
2017-07-27T06:23:08.779Z,28.6
2017-07-27T06:24:07.462Z,28.7
2017-07-27T06:25:06.747Z,28.7
2017-07-27T06:26:04.847Z,28.7
2017-07-27T06:27:07.460Z,28.7
2017-07-27T06:28:09.603Z,28.7
2017-07-27T06:29:06.980Z,28.8
2017-07-27T06:30:04.382Z,28.8
2017-07-27T06:31:04.113Z,28.8
2017-07-27T06:32:09.553Z,28.8
2017-07-27T06:33:07.092Z,28.9
2017-07-27T06:34:04.835Z,28.9
2017-07-27T06:35:09.621Z,29
2017-07-27T06:36:04.326Z,29.1
2017-07-27T06:37:07.266Z,29.2
2017-07-27T06:38:07.613Z,29.2
2017-07-27T06:39:04.778Z,29.2
2017-07-27T06:40:09.821Z,29.2
2017-07-27T06:41:07.433Z,29.3
2017-07-27T06:42:04.978Z,29.3
2017-07-27T06:43:09.606Z,29.3
2017-07-27T06:44:06.078Z,29.4
2017-07-27T06:45:05.100Z,29.4
2017-07-27T06:46:08.224Z,29.5
2017-07-27T06:47:10.156Z,29.5
2017-07-27T06:48:05.558Z,29.5
2017-07-27T06:49:08.154Z,29.5
2017-07-27T06:50:10.337Z,29.5
2017-07-27T06:51:08.301Z,29.5
2017-07-27T06:52:05.786Z,29.6
2017-07-27T06:53:08.028Z,29.6
2017-07-27T06:54:10.498Z,29.7
2017-07-27T06:55:05.662Z,29.7
2017-07-27T06:56:05.488Z,29.8
2017-07-27T06:57:08.279Z,29.7
2017-07-27T06:58:05.991Z,29.7
2017-07-27T06:59:10.993Z,29.6
2017-07-27T07:00:06.260Z,29.6
2017-07-27T07:01:09.421Z,29.6
2017-07-27T07:02:05.897Z,29.6
2017-07-27T07:03:11.435Z,29.5
2017-07-27T07:04:08.925Z,29.6
2017-07-27T07:05:11.108Z,29.6
2017-07-27T07:06:05.857Z,29.6
2017-07-27T07:07:05.913Z,29.7
2017-07-27T07:08:10.876Z,29.8
2017-07-27T07:09:05.984Z,29.7
2017-07-27T07:10:09.500Z,29.8
2017-07-27T07:11:06.901Z,29.8
2017-07-27T07:12:06.132Z,29.8
2017-07-27T07:13:07.013Z,29.9
2017-07-27T07:14:06.255Z,29.9
2017-07-27T07:15:09.478Z,30
2017-07-27T07:16:06.455Z,30
2017-07-27T07:17:06.236Z,30.1
2017-07-27T07:18:09.743Z,30.1
2017-07-27T07:19:10.065Z,30.2
2017-07-27T07:20:06.388Z,30.3
2017-07-27T07:21:11.764Z,30.4
2017-07-27T07:22:10.737Z,30.4
2017-07-27T07:23:09.824Z,30.4
2017-07-27T07:24:11.613Z,30.4
2017-07-27T07:25:11.703Z,30.5
2017-07-27T07:26:06.752Z,30.5
2017-07-27T07:27:09.681Z,30.5
2017-07-27T07:28:07.464Z,30.4
2017-07-27T07:29:09.780Z,30.5
2017-07-27T07:30:06.985Z,30.5
2017-07-27T07:31:09.933Z,30.5
2017-07-27T07:32:07.366Z,30.5
2017-07-27T07:33:07.155Z,30.6
2017-07-27T07:34:07.647Z,30.6
2017-07-27T07:35:07.291Z,30.7
2017-07-27T07:36:07.456Z,30.7
2017-07-27T07:37:12.707Z,30.7
2017-07-27T07:38:12.461Z,30.6
2017-07-27T07:39:11.260Z,30.7
2017-07-27T07:40:10.744Z,30.7
2017-07-27T07:41:11.584Z,30.7
2017-07-27T07:42:10.926Z,30.7
2017-07-27T07:43:08.100Z,30.7
2017-07-27T07:44:12.337Z,30.7
2017-07-27T07:45:15.820Z,30.7
2017-07-27T07:46:11.191Z,30.7
2017-07-27T07:47:10.872Z,30.7
2017-07-27T07:48:19.473Z,30.8
2017-07-27T07:49:12.815Z,30.9
2017-07-27T07:50:11.036Z,30.9
2017-07-27T07:51:08.913Z,31
2017-07-27T07:52:11.732Z,31
2017-07-27T07:53:13.364Z,31
2017-07-27T07:54:08.498Z,31
2017-07-27T07:55:08.530Z,31
2017-07-27T07:56:13.828Z,31
2017-07-27T07:57:11.434Z,31.1
2017-07-27T07:58:14.140Z,31.1
2017-07-27T07:59:12.489Z,31.1
2017-07-27T08:00:13.741Z,31.2
2017-07-27T08:01:13.732Z,31.3
2017-07-27T08:02:11.958Z,31.3
2017-07-27T08:03:08.753Z,31.4
2017-07-27T08:04:17.311Z,31.4
2017-07-27T08:05:12.110Z,31.5
2017-07-27T08:06:09.653Z,31.5
2017-07-27T08:07:09.167Z,31.6
2017-07-27T08:08:12.356Z,31.7
2017-07-27T08:09:09.803Z,31.8
2017-07-27T08:10:09.437Z,31.8
2017-07-27T08:11:09.392Z,31.8
2017-07-27T08:12:12.454Z,31.7
2017-07-27T08:13:09.270Z,31.7
2017-07-27T08:14:09.558Z,31.8
2017-07-27T08:15:09.280Z,31.8
2017-07-27T08:16:15.619Z,31.8
2017-07-27T08:17:14.400Z,31.8
2017-07-27T08:18:10.152Z,31.8
2017-07-27T08:19:09.619Z,31.8
2017-07-27T08:20:09.613Z,31.8
2017-07-27T08:21:13.245Z,31.9
2017-07-27T08:22:13.976Z,31.9
2017-07-27T08:23:13.221Z,31.9
2017-07-27T08:24:10.182Z,31.8
2017-07-27T08:25:15.342Z,31.8
2017-07-27T08:26:13.805Z,31.8
2017-07-27T08:27:13.679Z,31.8
2017-07-27T08:28:10.500Z,31.9
2017-07-27T08:29:10.752Z,31.9
2017-07-27T08:30:15.276Z,31.9
2017-07-27T08:31:10.438Z,31.9
2017-07-27T08:32:13.780Z,31.9
2017-07-27T08:33:10.747Z,31.9
2017-07-27T08:34:16.578Z,31.8
2017-07-27T08:35:10.581Z,31.8
2017-07-27T08:36:16.460Z,31.9
2017-07-27T08:37:15.773Z,32
2017-07-27T08:38:13.689Z,32
2017-07-27T08:39:16.119Z,32
2017-07-27T08:40:11.431Z,32.1
2017-07-27T08:41:14.090Z,32.1
2017-07-27T08:42:14.169Z,32.1
2017-07-27T08:43:13.811Z,32
2017-07-27T08:44:11.362Z,32
2017-07-27T08:45:11.465Z,32.1
2017-07-27T08:46:11.470Z,32.1
2017-07-27T08:47:12.061Z,32.1
2017-07-27T08:48:16.596Z,32.1
2017-07-27T08:49:14.507Z,32.1
2017-07-27T08:50:14.647Z,32.1
2017-07-27T08:51:16.698Z,32.1
2017-07-27T08:52:12.018Z,32.2
2017-07-27T08:53:12.210Z,32.1
2017-07-27T08:54:11.775Z,32.2
2017-07-27T08:55:13.355Z,32.3
2017-07-27T08:56:12.411Z,32.3
2017-07-27T08:57:17.943Z,32.4
2017-07-27T08:58:16.500Z,32.3
2017-07-27T08:59:15.013Z,32.3
2017-07-27T09:00:17.155Z,32.3
2017-07-27T09:01:17.451Z,32.3
2017-07-27T09:02:15.006Z,32.2
2017-07-27T09:03:11.983Z,32.1
2017-07-27T09:04:12.271Z,32.1
2017-07-27T09:05:17.653Z,32.1
2017-07-27T09:06:18.006Z,32
2017-07-27T09:07:15.781Z,31.9
2017-07-27T09:08:13.229Z,31.9
2017-07-27T09:09:16.282Z,31.9
2017-07-27T09:10:14.142Z,31.9
2017-07-27T09:11:13.078Z,31.9
2017-07-27T09:12:18.400Z,32
2017-07-27T09:13:15.331Z,32
2017-07-27T09:14:14.364Z,32.1
2017-07-27T09:15:13.680Z,32
2017-07-27T09:16:13.822Z,32.1
2017-07-27T09:17:12.946Z,32.1
2017-07-27T09:18:18.011Z,32.2
2017-07-27T09:19:15.939Z,32.3
2017-07-27T09:20:12.790Z,32.4
2017-07-27T09:21:13.556Z,32.4
2017-07-27T09:22:18.248Z,32.5
2017-07-27T09:23:14.614Z,32.5
2017-07-27T09:24:13.913Z,32.5
2017-07-27T09:25:18.015Z,32.6
2017-07-27T09:26:13.390Z,32.7
2017-07-27T09:27:15.566Z,32.8
2017-07-27T09:28:16.124Z,32.9
2017-07-27T09:29:13.282Z,33
2017-07-27T09:30:16.560Z,33.1
2017-07-27T09:31:14.745Z,33.1
2017-07-27T09:32:16.662Z,33.1
2017-07-27T09:33:13.649Z,33.1
2017-07-27T09:34:17.113Z,33
2017-07-27T09:35:14.707Z,33
2017-07-27T09:36:14.039Z,33
2017-07-27T09:37:13.958Z,32.8
2017-07-27T09:38:20.837Z,32.8
2017-07-27T09:39:13.797Z,32.8
2017-07-27T09:40:19.169Z,32.8
2017-07-27T09:41:18.340Z,32.8
2017-07-27T09:42:16.982Z,32.9
2017-07-27T09:43:17.293Z,33
2017-07-27T09:44:14.277Z,33.2
2017-07-27T09:45:19.531Z,33.3
2017-07-27T09:46:17.430Z,33.4
2017-07-27T09:47:19.616Z,33.4
2017-07-27T09:48:14.540Z,33.5
2017-07-27T09:49:14.341Z,33.5
2017-07-27T09:50:19.481Z,33.5
2017-07-27T09:51:17.670Z,33.7
2017-07-27T09:52:19.821Z,33.8
2017-07-27T09:53:14.483Z,33.9
2017-07-27T09:54:15.383Z,33.9
2017-07-27T09:55:17.386Z,33.9
2017-07-27T09:56:15.857Z,33.8
2017-07-27T09:57:19.261Z,33.8
2017-07-27T09:58:18.199Z,33.7
2017-07-27T09:59:20.012Z,33.7
2017-07-27T10:00:15.075Z,33.7
2017-07-27T10:01:15.163Z,33.7
2017-07-27T10:02:17.433Z,33.7
2017-07-27T10:03:20.260Z,33.7
2017-07-27T10:04:16.527Z,33.7
2017-07-27T10:05:15.570Z,33.7
2017-07-27T10:06:18.764Z,33.7
2017-07-27T10:07:16.526Z,33.8
2017-07-27T10:08:23.357Z,33.8
2017-07-27T10:09:22.254Z,33.8
2017-07-27T10:10:17.442Z,33.8
2017-07-27T10:11:20.592Z,33.8
2017-07-27T10:12:19.696Z,33.8
2017-07-27T10:13:16.140Z,33.8
2017-07-27T10:14:20.880Z,33.8
2017-07-27T10:15:18.696Z,33.8
2017-07-27T10:16:16.082Z,33.9
2017-07-27T10:17:24.908Z,34
2017-07-27T10:18:18.996Z,34
2017-07-27T10:19:22.588Z,34
2017-07-27T10:20:15.677Z,33.9
2017-07-27T10:21:49.444Z,33.6
2017-07-27T10:22:52.250Z,33.4
2017-07-27T10:23:50.702Z,33.3
2017-07-27T10:24:48.780Z,33.2
2017-07-27T10:25:46.278Z,33.1
2017-07-27T10:26:50.784Z,33
2017-07-27T10:27:46.525Z,32.9
2017-07-27T10:28:51.861Z,32.9
2017-07-27T10:29:48.846Z,32.8
2017-07-27T10:30:50.438Z,32.8
2017-07-27T10:31:46.385Z,32.7
2017-07-27T10:32:46.806Z,32.6
2017-07-27T10:33:52.853Z,32.7
2017-07-27T10:34:51.359Z,32.6
2017-07-27T10:35:48.767Z,32.5
2017-07-27T10:36:47.404Z,32.5
2017-07-27T10:37:48.170Z,32.5
2017-07-27T10:38:47.449Z,32.4
2017-07-27T10:39:52.014Z,32.3
2017-07-27T10:40:46.777Z,32.3
2017-07-27T10:41:46.596Z,32.2
2017-07-27T10:42:47.737Z,32.2
2017-07-27T10:43:46.754Z,32.2
2017-07-27T10:44:53.245Z,32.2
2017-07-27T10:45:51.982Z,32.2
2017-07-27T10:46:47.420Z,32.2
2017-07-27T10:47:46.881Z,32.2
2017-07-27T10:48:47.495Z,32.2
2017-07-27T10:49:47.860Z,32.2
2017-07-27T10:50:47.356Z,32.1
2017-07-27T10:51:51.121Z,32.1
2017-07-27T10:52:53.312Z,32.1
2017-07-27T10:53:55.409Z,32.1
2017-07-27T10:54:51.135Z,32.1
2017-07-27T10:55:50.806Z,32.1
2017-07-27T10:56:47.455Z,32
2017-07-27T10:57:50.625Z,32
2017-07-27T10:58:50.722Z,32
2017-07-27T10:59:53.216Z,32.1
2017-07-27T11:00:47.901Z,32.1
2017-07-27T11:01:48.009Z,32.1
2017-07-27T11:02:48.485Z,32.1
2017-07-27T11:03:49.082Z,32.1
2017-07-27T11:04:53.969Z,32.1
2017-07-27T11:05:51.254Z,32
2017-07-27T11:06:53.653Z,32
2017-07-27T11:07:49.012Z,32
2017-07-27T11:08:55.111Z,32
2017-07-27T11:09:53.772Z,32
2017-07-27T11:10:52.693Z,32
2017-07-27T11:11:51.185Z,31.9
2017-07-27T11:12:48.552Z,31.9
2017-07-27T11:13:53.257Z,31.9
2017-07-27T11:14:51.896Z,31.9
2017-07-27T11:15:54.802Z,31.9
2017-07-27T11:16:54.693Z,31.9
2017-07-27T11:17:49.250Z,31.9
2017-07-27T11:18:48.611Z,31.8
2017-07-27T11:19:49.357Z,31.8
2017-07-27T11:20:50.304Z,31.8
2017-07-27T11:21:52.901Z,31.8
2017-07-27T11:22:52.829Z,31.8
2017-07-27T11:23:48.797Z,31.8
2017-07-27T11:24:49.511Z,31.8
2017-07-27T11:25:49.121Z,31.7
2017-07-27T11:26:50.315Z,31.6
2017-07-27T11:27:56.125Z,31.5
2017-07-27T11:28:55.212Z,31.5
2017-07-27T11:29:49.989Z,31.5
2017-07-27T11:30:49.011Z,31.5
2017-07-27T11:31:53.954Z,31.4
2017-07-27T11:32:49.028Z,31.5
2017-07-27T11:33:54.887Z,31.5
2017-07-27T11:34:49.756Z,31.5
2017-07-27T11:35:49.659Z,31.5
2017-07-27T11:36:53.613Z,31.6
2017-07-27T11:37:51.293Z,31.6
2017-07-27T11:38:51.945Z,31.6
2017-07-27T11:39:52.509Z,31.6
2017-07-27T11:40:49.470Z,31.6
2017-07-27T11:41:49.494Z,31.6
2017-07-27T11:42:50.622Z,31.6
2017-07-27T11:43:54.631Z,31.6
2017-07-27T11:44:51.165Z,31.6
2017-07-27T11:45:53.017Z,31.6
2017-07-27T11:46:51.688Z,31.6
2017-07-27T11:47:52.959Z,31.6
2017-07-27T11:48:52.585Z,31.5
2017-07-27T11:49:52.607Z,31.5
2017-07-27T11:50:53.167Z,31.6
2017-07-27T11:51:50.246Z,31.6
2017-07-27T11:52:50.337Z,31.7
2017-07-27T11:53:53.972Z,31.7
2017-07-27T11:54:55.415Z,31.7
2017-07-27T11:55:53.076Z,31.7
2017-07-27T11:56:50.520Z,31.7
2017-07-27T11:57:50.601Z,31.7
2017-07-27T11:58:54.763Z,31.6
2017-07-27T11:59:56.246Z,31.7
2017-07-27T12:00:53.593Z,31.7
2017-07-27T12:01:50.790Z,31.7
2017-07-27T12:02:50.770Z,31.7
2017-07-27T12:03:51.620Z,31.7
2017-07-27T12:04:55.971Z,31.8
2017-07-27T12:05:57.598Z,31.8
2017-07-27T12:06:56.752Z,31.8
2017-07-27T12:07:56.828Z,31.8
2017-07-27T12:08:54.079Z,31.8
2017-07-27T12:09:55.398Z,31.8
2017-07-27T12:10:53.863Z,31.8
2017-07-27T12:11:52.298Z,31.8
2017-07-27T12:12:51.367Z,31.8
2017-07-27T12:13:57.162Z,31.8
2017-07-27T12:14:54.069Z,31.8
2017-07-27T12:15:54.419Z,31.8
2017-07-27T12:16:51.598Z,31.9
2017-07-27T12:17:54.212Z,31.9
2017-07-27T12:18:51.668Z,31.9
2017-07-27T12:19:53.186Z,31.9
2017-07-27T12:20:56.798Z,31.9
2017-07-27T12:21:54.986Z,31.9
2017-07-27T12:22:51.865Z,31.9
2017-07-27T12:23:51.897Z,31.9
2017-07-27T12:24:57.481Z,31.9
2017-07-27T12:25:51.607Z,31.8
2017-07-27T12:26:52.900Z,31.9
2017-07-27T12:27:51.745Z,31.9
2017-07-27T12:28:52.036Z,31.9
2017-07-27T12:29:55.273Z,31.9
2017-07-27T12:30:52.162Z,31.9
2017-07-27T12:31:57.197Z,31.9
2017-07-27T12:32:54.883Z,31.9
2017-07-27T12:33:55.602Z,31.9
2017-07-27T12:34:52.844Z,31.9
2017-07-27T12:35:57.204Z,31.9
2017-07-27T12:36:53.223Z,32
2017-07-27T12:37:52.520Z,32
2017-07-27T12:38:52.521Z,32
2017-07-27T12:39:55.517Z,32
2017-07-27T12:40:53.248Z,31.9
2017-07-27T12:41:57.442Z,32
2017-07-27T12:42:56.067Z,32
2017-07-27T12:43:59.863Z,31.9
2017-07-27T12:44:59.645Z,31.9
2017-07-27T12:45:58.226Z,31.9
2017-07-27T12:46:58.040Z,31.9
2017-07-27T12:48:00.320Z,32
2017-07-27T12:48:55.595Z,31.9
2017-07-27T12:49:54.942Z,31.9
2017-07-27T12:50:55.749Z,31.9
2017-07-27T12:51:53.806Z,31.9
2017-07-27T12:52:53.026Z,31.9
2017-07-27T12:53:56.257Z,31.9
2017-07-27T12:54:56.364Z,31.9
2017-07-27T12:55:53.748Z,31.9
2017-07-27T12:56:58.174Z,31.9
2017-07-27T12:57:54.147Z,31.9
2017-07-27T12:58:53.316Z,31.9
2017-07-27T12:59:53.702Z,31.9
2017-07-27T13:00:58.440Z,32
2017-07-27T13:02:00.983Z,32
2017-07-27T13:02:55.922Z,32
2017-07-27T13:03:59.912Z,31.9
2017-07-27T13:04:58.328Z,31.9
2017-07-27T13:05:57.248Z,31.9
2017-07-27T13:06:57.794Z,32
2017-07-27T13:07:55.596Z,32
2017-07-27T13:08:54.514Z,32
2017-07-27T13:10:00.902Z,32
2017-07-27T13:10:58.475Z,32
2017-07-27T13:11:57.840Z,32
2017-07-27T13:12:55.115Z,32
2017-07-27T13:13:58.221Z,32
2017-07-27T13:15:02.923Z,32
2017-07-27T13:15:59.663Z,32
2017-07-27T13:16:59.328Z,32
2017-07-27T13:17:55.223Z,32
2017-07-27T13:18:58.405Z,32
2017-07-27T13:20:02.613Z,32
2017-07-27T13:21:00.436Z,32
2017-07-27T13:21:55.231Z,32
2017-07-27T13:23:01.439Z,32
2017-07-27T13:23:54.934Z,32
2017-07-27T13:24:55.801Z,32
2017-07-27T13:25:59.195Z,32
2017-07-27T13:26:59.469Z,32
2017-07-27T13:28:01.704Z,32
2017-07-27T13:29:06.521Z,32
2017-07-27T13:30:00.131Z,32
2017-07-27T13:31:00.790Z,32
2017-07-27T13:31:57.407Z,31.9
2017-07-27T13:32:58.260Z,32
2017-07-27T13:34:02.591Z,32
2017-07-27T13:35:02.453Z,31.9
2017-07-27T13:36:00.486Z,31.9